createdAt,value
2018-09-04T00:02:28.700Z,99.90
2018-09-04T00:04:57.441Z,99.90
2018-09-04T00:07:26.247Z,99.90
2018-09-04T00:09:54.936Z,99.90
2018-09-04T00:12:24.135Z,99.90
2018-09-04T00:14:52.805Z,99.90
2018-09-04T00:17:22.105Z,99.90
2018-09-04T00:19:50.771Z,99.90
2018-09-04T00:22:19.906Z,99.90
2018-09-04T00:24:49.334Z,99.90
2018-09-04T00:27:18.080Z,99.90
2018-09-04T00:29:46.784Z,99.90
2018-09-04T00:32:15.479Z,99.90
2018-09-04T00:34:44.116Z,99.90
2018-09-04T00:37:13.417Z,99.90
2018-09-04T00:39:42.224Z,99.90
2018-09-04T00:42:10.922Z,99.90
2018-09-04T00:44:39.663Z,99.90
2018-09-04T00:47:08.383Z,99.90
2018-09-04T00:49:37.027Z,99.90
2018-09-04T00:53:25.170Z,99.90
2018-09-04T00:55:53.847Z,99.90
2018-09-04T00:58:22.604Z,99.90
2018-09-04T01:00:51.703Z,99.90
2018-09-04T01:03:20.424Z,99.90
2018-09-04T01:05:49.135Z,99.90
2018-09-04T01:08:17.906Z,99.90
2018-09-04T01:10:46.600Z,99.90
2018-09-04T01:13:15.267Z,99.90
2018-09-04T01:15:43.987Z,99.90
2018-09-04T01:18:13.295Z,99.90
2018-09-04T01:20:42.055Z,99.90
2018-09-04T01:23:11.072Z,99.90
2018-09-04T01:25:39.993Z,99.90
2018-09-04T01:28:10.257Z,99.90
2018-09-04T01:30:39.666Z,99.90
2018-09-04T01:33:08.407Z,99.90
2018-09-04T01:35:37.088Z,99.90
2018-09-04T01:38:05.771Z,99.90
2018-09-04T01:40:34.474Z,99.90
2018-09-04T01:43:03.206Z,99.90
2018-09-04T01:45:31.950Z,99.90
2018-09-04T01:48:00.711Z,99.90
2018-09-04T01:50:29.365Z,99.90
2018-09-04T01:52:58.024Z,99.90
2018-09-04T01:55:26.697Z,99.90
2018-09-04T01:57:55.387Z,99.90
2018-09-04T02:00:24.099Z,99.90
2018-09-04T02:02:52.768Z,99.90
2018-09-04T02:05:21.458Z,99.90
2018-09-04T02:07:50.118Z,99.90
2018-09-04T02:10:19.638Z,99.90
2018-09-04T02:12:48.327Z,99.90
2018-09-04T02:15:17.058Z,99.90
2018-09-04T02:17:45.794Z,99.90
2018-09-04T02:20:14.530Z,99.90
2018-09-04T02:22:43.371Z,99.90
2018-09-04T02:25:12.255Z,99.90
2018-09-04T02:27:41.446Z,99.90
2018-09-04T02:30:10.242Z,99.90
2018-09-04T02:32:38.950Z,99.90
2018-09-04T02:35:08.639Z,99.90
2018-09-04T02:37:37.622Z,99.90
2018-09-04T02:40:06.423Z,99.90
2018-09-04T02:42:35.199Z,99.90
2018-09-04T02:45:04.819Z,99.90
2018-09-04T02:47:33.536Z,99.90
2018-09-04T02:50:02.243Z,99.90
2018-09-04T02:52:30.938Z,99.90
2018-09-04T02:54:59.583Z,99.90
2018-09-04T02:57:28.261Z,99.90
2018-09-04T02:59:57.075Z,99.90
2018-09-04T03:02:25.763Z,99.90
2018-09-04T03:04:54.433Z,99.90
2018-09-04T03:07:23.251Z,99.90
2018-09-04T03:09:51.909Z,99.90
2018-09-04T03:12:20.679Z,99.90
2018-09-04T03:14:49.390Z,99.90
2018-09-04T03:17:18.073Z,99.90
2018-09-04T03:19:46.707Z,99.90
2018-09-04T03:22:15.414Z,99.90
2018-09-04T03:24:44.170Z,99.90
2018-09-04T03:27:13.119Z,99.90
2018-09-04T03:29:41.791Z,99.90
2018-09-04T03:32:10.519Z,99.90
2018-09-04T03:34:39.219Z,99.90
2018-09-04T03:37:08.248Z,99.90
2018-09-04T03:39:36.909Z,99.90
2018-09-04T03:42:05.668Z,99.90
2018-09-04T03:44:35.684Z,99.90
2018-09-04T03:47:04.409Z,99.90
2018-09-04T03:49:33.230Z,99.90
2018-09-04T03:52:01.930Z,99.90
2018-09-04T03:54:31.354Z,99.90
2018-09-04T03:57:00.030Z,99.90
2018-09-04T03:59:28.747Z,99.90
2018-09-04T04:01:57.426Z,99.90
2018-09-04T04:04:26.143Z,99.90
2018-09-04T04:06:54.899Z,99.90
2018-09-04T04:09:23.644Z,99.90
2018-09-04T04:11:52.434Z,99.90
2018-09-04T04:14:22.108Z,99.90
2018-09-04T04:16:50.835Z,99.90
2018-09-04T04:19:19.575Z,99.90
2018-09-04T04:21:48.239Z,99.90
2018-09-04T04:24:17.449Z,99.90
2018-09-04T04:26:46.138Z,99.90
2018-09-04T04:29:14.869Z,99.90
2018-09-04T04:31:43.557Z,99.90
2018-09-04T04:34:12.251Z,99.90
2018-09-04T04:36:40.921Z,99.90
2018-09-04T04:39:10.172Z,99.90
2018-09-04T04:41:39.017Z,99.90
2018-09-04T04:44:07.950Z,99.90
2018-09-04T04:46:37.389Z,99.90
2018-09-04T04:49:06.407Z,99.90
2018-09-04T04:51:35.090Z,99.90
2018-09-04T04:54:03.839Z,99.90
2018-09-04T04:56:32.709Z,99.90
2018-09-04T04:59:02.686Z,99.90
2018-09-04T05:01:32.326Z,99.90
2018-09-04T05:04:03.042Z,99.90
2018-09-04T05:06:31.815Z,99.90
2018-09-04T05:09:00.539Z,99.90
2018-09-04T05:11:29.297Z,99.90
2018-09-04T05:13:58.031Z,99.90
2018-09-04T05:16:26.883Z,99.90
2018-09-04T05:18:55.865Z,99.90
2018-09-04T05:21:24.925Z,99.90
2018-09-04T05:23:53.719Z,99.90
2018-09-04T05:26:22.491Z,99.90
2018-09-04T05:28:51.274Z,99.90
2018-09-04T05:31:21.391Z,99.90
2018-09-04T05:33:50.195Z,99.90
2018-09-04T05:36:19.183Z,99.90
2018-09-04T05:38:47.959Z,99.90
2018-09-04T05:41:16.691Z,99.90
2018-09-04T05:43:48.189Z,99.90
2018-09-04T05:46:22.978Z,99.90
2018-09-04T05:48:51.835Z,99.90
2018-09-04T05:58:17.584Z,99.90
2018-09-04T06:00:49.674Z,99.90
2018-09-04T06:03:18.369Z,99.90
2018-09-04T06:05:47.055Z,99.90
2018-09-04T06:08:16.244Z,99.90
2018-09-04T06:10:46.335Z,99.90
2018-09-04T06:13:15.193Z,99.90
2018-09-04T06:15:44.354Z,99.90
2018-09-04T06:18:13.075Z,99.90
2018-09-04T06:20:43.348Z,99.90
2018-09-04T06:23:12.086Z,99.90
2018-09-04T06:25:41.568Z,99.90
2018-09-04T06:28:11.783Z,99.90
2018-09-04T06:30:40.667Z,99.90
2018-09-04T06:33:09.432Z,99.90
2018-09-04T06:35:42.956Z,99.90
2018-09-04T06:38:13.994Z,99.90
2018-09-04T06:40:42.794Z,99.90
2018-09-04T06:43:12.299Z,99.90
2018-09-04T06:45:42.724Z,99.90
2018-09-04T06:48:15.621Z,99.90
2018-09-04T06:50:44.607Z,99.90
2018-09-04T06:53:13.918Z,99.90
2018-09-04T06:55:43.924Z,99.90
2018-09-04T06:58:14.095Z,99.90
2018-09-04T07:00:43.131Z,99.90
2018-09-04T07:03:11.984Z,99.90
2018-09-04T07:05:40.680Z,99.90
2018-09-04T07:08:09.379Z,99.90
2018-09-04T07:10:38.283Z,99.90
2018-09-04T07:13:08.219Z,99.90
2018-09-04T07:15:37.099Z,99.90
2018-09-04T07:18:07.427Z,99.90
2018-09-04T07:20:37.126Z,99.90
2018-09-04T07:23:07.935Z,99.90
2018-09-04T07:25:36.931Z,99.90
2018-09-04T07:28:08.390Z,99.90
2018-09-04T07:30:38.215Z,99.90
2018-09-04T07:33:07.460Z,99.90
2018-09-04T07:35:37.399Z,99.90
2018-09-04T07:38:08.711Z,99.90
2018-09-04T07:40:38.493Z,99.90
2018-09-04T07:43:08.636Z,99.90
2018-09-04T07:45:39.218Z,99.90
2018-09-04T07:48:09.600Z,99.90
2018-09-04T07:50:39.743Z,99.90
2018-09-04T07:53:09.213Z,99.90
2018-09-04T07:55:42.480Z,99.90
2018-09-04T07:58:12.208Z,99.90
2018-09-04T08:00:41.021Z,99.90
2018-09-04T08:03:16.396Z,99.90
2018-09-04T08:05:45.984Z,99.90
2018-09-04T08:08:14.820Z,99.90
2018-09-04T08:10:44.925Z,99.90
2018-09-04T08:13:14.129Z,99.90
2018-09-04T08:15:42.952Z,99.90
2018-09-04T08:18:11.691Z,99.90
2018-09-04T08:20:40.651Z,99.90
2018-09-04T08:23:09.495Z,99.90
2018-09-04T08:25:40.211Z,99.90
2018-09-04T08:28:13.175Z,99.90
2018-09-04T08:30:42.285Z,99.90
2018-09-04T08:33:11.855Z,99.90
2018-09-04T08:35:42.614Z,99.90
2018-09-04T08:38:11.380Z,99.90
2018-09-04T08:40:40.394Z,99.90
2018-09-04T08:43:09.218Z,99.90
2018-09-04T08:45:39.108Z,99.90
2018-09-04T08:48:13.164Z,99.90
2018-09-04T08:50:42.003Z,99.90
2018-09-04T08:53:10.826Z,99.90
2018-09-04T08:55:41.538Z,99.90
2018-09-04T08:58:11.367Z,99.90
2018-09-04T09:00:42.271Z,99.90
2018-09-04T09:03:12.168Z,99.90
2018-09-04T09:05:42.868Z,99.90
2018-09-04T09:08:13.416Z,99.90
2018-09-04T09:10:44.453Z,99.90
2018-09-04T09:13:22.227Z,99.90
2018-09-04T09:15:51.674Z,99.90
2018-09-04T09:18:20.514Z,99.90
2018-09-04T09:20:52.570Z,99.90
2018-09-04T09:23:22.167Z,99.90
2018-09-04T09:25:50.975Z,99.90
2018-09-04T09:28:20.540Z,99.90
2018-09-04T09:30:49.366Z,99.90
2018-09-04T09:33:18.376Z,99.90
2018-09-04T09:35:48.166Z,99.90
2018-09-04T09:38:18.222Z,99.90
2018-09-04T09:40:48.173Z,99.90
2018-09-04T09:43:20.907Z,99.90
2018-09-04T09:45:51.227Z,99.90
2018-09-04T09:48:22.938Z,99.90
2018-09-04T09:50:53.055Z,99.90
2018-09-04T09:53:21.781Z,99.70
2018-09-04T09:55:51.217Z,98.90
2018-09-04T09:58:20.799Z,97.50
2018-09-04T10:00:55.195Z,98.20
2018-09-04T10:03:30.174Z,95.10
2018-09-04T10:05:59.937Z,94.70
2018-09-04T10:08:28.824Z,94.70
2018-09-04T10:10:57.563Z,95.70
2018-09-04T10:13:27.458Z,95.70
2018-09-04T10:15:56.382Z,94.90
2018-09-04T10:18:26.603Z,94.80
2018-09-04T10:20:56.510Z,95.70
2018-09-04T10:23:26.963Z,95.00
2018-09-04T10:25:56.292Z,94.90
2018-09-04T10:28:25.178Z,93.70
2018-09-04T10:30:53.978Z,94.00
2018-09-04T10:33:24.615Z,95.00
2018-09-04T10:35:54.678Z,94.50
2018-09-04T10:38:25.787Z,94.20
2018-09-04T10:41:01.708Z,94.20
2018-09-04T10:43:31.535Z,93.80
2018-09-04T10:46:04.234Z,93.50
2018-09-04T10:48:33.206Z,94.10
2018-09-04T10:51:08.139Z,93.80
2018-09-04T10:53:36.928Z,94.20
2018-09-04T10:56:07.699Z,93.00
2018-09-04T10:58:39.414Z,91.40
2018-09-04T11:01:08.173Z,91.70
2018-09-04T11:03:37.671Z,92.50
2018-09-04T11:06:08.130Z,92.50
2018-09-04T11:08:37.495Z,92.80
2018-09-04T11:11:06.448Z,92.50
2018-09-04T11:13:39.060Z,92.90
2018-09-04T11:16:11.703Z,93.80
2018-09-04T11:18:43.541Z,93.10
2018-09-04T11:21:13.341Z,94.30
2018-09-04T11:23:43.152Z,94.40
2018-09-04T11:26:16.917Z,94.70
2018-09-04T11:28:48.853Z,95.00
2018-09-04T11:31:17.719Z,95.50
2018-09-04T11:33:46.479Z,95.30
2018-09-04T11:36:16.262Z,95.60
2018-09-04T11:38:45.209Z,94.80
2018-09-04T11:41:14.789Z,93.10
2018-09-04T11:43:43.621Z,93.50
2018-09-04T11:46:13.463Z,94.00
2018-09-04T11:48:42.306Z,94.30
2018-09-04T11:51:13.268Z,93.40
2018-09-04T11:53:43.576Z,93.10
2018-09-04T11:56:12.410Z,94.30
2018-09-04T11:58:41.236Z,93.10
2018-09-04T12:01:13.111Z,92.80
2018-09-04T12:03:42.490Z,93.30
2018-09-04T12:06:12.255Z,94.50
2018-09-04T12:08:44.098Z,95.20
2018-09-04T12:16:03.400Z,94.80
2018-09-04T12:18:32.367Z,93.80
2018-09-04T12:21:06.417Z,94.10
2018-09-04T12:23:36.163Z,92.80
2018-09-04T12:26:08.095Z,92.10
2018-09-04T12:28:37.529Z,91.10
2018-09-04T12:31:09.153Z,92.50
2018-09-04T12:33:39.176Z,91.70
2018-09-04T12:36:08.342Z,91.00
2018-09-04T12:38:40.324Z,91.80
2018-09-04T12:41:14.265Z,92.20
2018-09-04T12:43:43.278Z,91.60
2018-09-04T12:46:12.329Z,92.10
2018-09-04T12:48:47.104Z,91.10
2018-09-04T12:51:16.646Z,90.80
2018-09-04T12:53:45.572Z,88.50
2018-09-04T12:56:21.329Z,90.30
2018-09-04T12:58:50.080Z,91.60
2018-09-04T13:01:19.504Z,89.30
2018-09-04T13:03:50.593Z,89.30
2018-09-04T13:06:20.359Z,89.30
2018-09-04T13:08:49.048Z,89.30
2018-09-04T13:11:17.799Z,89.20
2018-09-04T13:13:47.307Z,89.70
2018-09-04T13:16:16.368Z,89.40
2018-09-04T13:18:46.042Z,90.50
2018-09-04T13:21:14.965Z,91.80
2018-09-04T13:23:46.860Z,89.90
2018-09-04T13:26:24.036Z,88.30
2018-09-04T13:28:53.394Z,88.60
2018-09-04T13:31:22.099Z,87.10
2018-09-04T13:33:52.665Z,86.10
2018-09-04T13:36:22.458Z,85.00
2018-09-04T13:38:51.347Z,82.30
2018-09-04T13:41:21.964Z,83.60
2018-09-04T13:43:52.151Z,84.20
2018-09-04T13:46:22.436Z,84.70
2018-09-04T13:48:52.428Z,86.30
2018-09-04T13:51:22.580Z,85.50
2018-09-04T13:53:54.707Z,86.80
2018-09-04T13:56:23.448Z,85.50
2018-09-04T13:58:54.039Z,83.90
2018-09-04T14:01:23.964Z,85.50
2018-09-04T14:03:52.656Z,88.90
2018-09-04T14:11:54.314Z,90.00
2018-09-04T14:14:24.296Z,90.10
2018-09-04T14:16:53.068Z,90.80
2018-09-04T14:19:22.422Z,92.00
2018-09-04T14:21:53.206Z,91.90
2018-09-04T14:24:21.933Z,90.90
2018-09-04T14:26:51.378Z,91.30
2018-09-04T14:29:53.157Z,91.00
2018-09-04T14:31:52.487Z,90.30
2018-09-04T14:34:21.743Z,90.80
2018-09-04T14:36:51.674Z,90.10
2018-09-04T14:39:20.349Z,89.90
2018-09-04T14:41:49.080Z,91.00
2018-09-04T14:44:25.162Z,90.90
2018-09-04T14:46:54.213Z,92.10
2018-09-04T14:49:23.732Z,91.80
2018-09-04T14:51:53.072Z,91.50
2018-09-04T14:54:24.212Z,91.70
2018-09-04T14:56:54.329Z,92.10
2018-09-04T14:59:23.099Z,92.40
2018-09-04T15:01:52.688Z,92.70
2018-09-04T15:04:22.478Z,92.20
2018-09-04T15:06:53.029Z,92.20
2018-09-04T15:09:23.785Z,92.40
2018-09-04T15:11:52.477Z,92.70
2018-09-04T15:14:21.247Z,92.10
2018-09-04T15:16:51.179Z,91.90
2018-09-04T15:19:25.377Z,92.50
2018-09-04T15:21:55.190Z,92.40
2018-09-04T15:24:24.969Z,92.30
2018-09-04T15:26:58.485Z,92.40
2018-09-04T15:29:28.156Z,93.20
2018-09-04T15:31:57.817Z,97.10
2018-09-04T15:37:26.523Z,98.40
2018-09-04T15:39:56.211Z,98.00
2018-09-04T16:22:45.207Z,99.80
2018-09-04T16:25:17.932Z,99.60
2018-09-04T16:27:48.349Z,99.70
2018-09-04T16:30:18.827Z,99.90
2018-09-04T16:32:49.231Z,99.90
2018-09-04T16:35:18.235Z,99.90
2018-09-04T16:37:47.781Z,99.90
2018-09-04T16:40:17.321Z,99.90
2018-09-04T16:42:47.474Z,99.90
2018-09-04T16:45:17.221Z,99.90
2018-09-04T16:47:50.040Z,99.90
2018-09-04T16:50:21.008Z,99.90
2018-09-04T16:52:51.623Z,99.90
2018-09-04T16:55:26.548Z,99.90
2018-09-04T16:57:58.021Z,99.90
2018-09-04T17:00:27.799Z,99.90
2018-09-04T17:02:58.628Z,99.90
2018-09-04T17:05:29.292Z,99.90
2018-09-04T17:07:58.380Z,99.90
2018-09-04T17:10:33.146Z,99.90
2018-09-04T17:13:03.981Z,99.90
2018-09-04T17:15:35.774Z,99.90
2018-09-04T17:18:16.536Z,99.90
2018-09-04T17:20:51.468Z,99.90
2018-09-04T17:23:21.029Z,99.90
2018-09-04T17:25:52.795Z,99.90
2018-09-04T17:28:24.943Z,99.90
2018-09-04T17:30:56.009Z,99.90
2018-09-04T17:33:30.804Z,99.90
2018-09-04T17:36:03.312Z,99.90
2018-09-04T17:38:33.234Z,99.90
2018-09-04T17:42:07.577Z,99.90
2018-09-04T17:44:44.133Z,99.90
2018-09-04T17:47:14.230Z,99.90
2018-09-04T17:49:47.453Z,99.90
2018-09-04T17:52:25.218Z,99.90
2018-09-04T17:54:57.667Z,99.90
2018-09-04T17:57:31.217Z,99.90
2018-09-04T18:00:02.529Z,99.90
2018-09-04T18:02:32.738Z,99.90
2018-09-04T18:05:02.660Z,99.90
2018-09-04T18:07:34.668Z,99.90
2018-09-04T18:10:03.681Z,99.90
2018-09-04T18:12:33.135Z,99.90
2018-09-04T18:15:03.185Z,99.90
2018-09-04T18:17:34.160Z,99.90
2018-09-04T18:20:03.235Z,99.90
2018-09-04T18:22:34.961Z,99.90
2018-09-04T18:25:04.388Z,99.90
2018-09-04T18:27:36.801Z,99.90
2018-09-04T18:30:07.445Z,99.90
2018-09-04T18:32:38.781Z,99.90
2018-09-04T18:35:07.662Z,99.90
2018-09-04T18:37:37.181Z,99.90
2018-09-04T18:40:07.419Z,99.90
2018-09-04T18:42:44.806Z,99.90
2018-09-04T18:45:31.305Z,99.90
2018-09-04T18:48:03.320Z,99.90
2018-09-04T18:50:37.359Z,99.90
2018-09-04T18:53:10.369Z,99.90
2018-09-04T18:55:41.300Z,99.90
2018-09-04T18:58:14.348Z,99.90
2018-09-04T19:00:44.428Z,99.90
2018-09-04T19:03:14.168Z,99.90
2018-09-04T19:05:43.197Z,99.90
2018-09-04T19:08:12.619Z,99.90
2018-09-04T19:10:42.709Z,99.90
2018-09-04T19:13:11.866Z,99.90
2018-09-04T19:15:41.872Z,99.90
2018-09-04T19:18:12.449Z,99.90
2018-09-04T19:20:44.875Z,99.90
2018-09-04T19:23:15.513Z,99.90
2018-09-04T19:25:45.716Z,99.90
2018-09-04T19:28:17.611Z,99.90
2018-09-04T19:30:48.423Z,99.90
2018-09-04T19:33:19.470Z,99.90
2018-09-04T19:35:51.274Z,99.90
2018-09-04T19:38:20.110Z,99.90
2018-09-04T19:40:50.416Z,99.90
2018-09-04T19:43:21.566Z,99.90
2018-09-04T19:45:51.089Z,99.90
2018-09-04T19:48:20.616Z,99.90
2018-09-04T19:50:51.049Z,99.90
2018-09-04T19:53:21.166Z,99.90
2018-09-04T19:55:51.512Z,99.90
2018-09-04T19:58:26.262Z,99.90
2018-09-04T20:00:55.774Z,99.90
2018-09-04T20:03:30.068Z,99.90
2018-09-04T20:06:01.304Z,99.90
2018-09-04T20:08:33.486Z,99.90
2018-09-04T20:11:02.672Z,99.90
2018-09-04T20:13:37.443Z,99.90
2018-09-04T20:16:07.798Z,99.90
2018-09-04T20:18:37.266Z,99.90
2018-09-04T20:21:07.072Z,99.90
2018-09-04T20:23:37.519Z,99.90
2018-09-04T20:26:06.497Z,99.90
2018-09-04T20:28:36.108Z,99.90
2018-09-04T20:31:06.707Z,99.90
2018-09-04T20:33:36.357Z,99.90
2018-09-04T20:36:06.376Z,99.90
2018-09-04T20:38:37.103Z,99.90
2018-09-04T20:41:08.006Z,99.90
2018-09-04T20:43:40.668Z,99.90
2018-09-04T20:46:10.547Z,99.90
2018-09-04T20:48:39.909Z,99.90
2018-09-04T20:51:08.782Z,99.90
2018-09-04T20:53:37.690Z,99.90
2018-09-04T20:56:08.815Z,99.90
2018-09-04T20:58:49.626Z,99.90
2018-09-04T21:01:31.405Z,99.90
2018-09-04T21:04:11.215Z,99.90
2018-09-04T21:06:44.641Z,99.90
2018-09-04T21:09:41.885Z,99.90
2018-09-04T21:12:11.404Z,99.90
2018-09-04T21:14:44.195Z,99.90
2018-09-04T21:17:14.124Z,99.90
2018-09-04T21:19:44.338Z,99.90
2018-09-04T21:22:13.132Z,99.90
2018-09-04T21:24:42.175Z,99.90
2018-09-04T21:27:12.402Z,99.90
2018-09-04T21:29:41.641Z,99.90
2018-09-04T21:32:11.094Z,99.90
2018-09-04T21:34:39.823Z,99.90
2018-09-04T21:37:13.394Z,99.90
2018-09-04T21:39:42.250Z,99.90
2018-09-04T21:42:14.298Z,99.90
2018-09-04T21:44:43.858Z,99.90
2018-09-04T21:47:12.737Z,99.90
2018-09-04T21:49:42.138Z,99.90
2018-09-04T21:54:50.232Z,99.90
2018-09-04T21:57:18.990Z,99.90
2018-09-04T21:59:48.428Z,99.90
2018-09-04T22:02:18.410Z,99.90
2018-09-04T22:04:47.196Z,99.90
2018-09-04T22:07:16.398Z,99.90
2018-09-04T22:09:45.969Z,99.90
2018-09-04T22:12:15.661Z,99.90
2018-09-04T22:14:46.513Z,99.90
2018-09-04T22:17:16.280Z,99.90
2018-09-04T22:19:46.333Z,99.90
2018-09-04T22:22:16.435Z,99.90
2018-09-04T22:24:48.116Z,99.90
2018-09-04T22:27:17.493Z,99.90
2018-09-04T22:29:47.284Z,99.90
2018-09-04T22:32:16.463Z,99.90
2018-09-04T22:34:47.903Z,99.90
2018-09-04T22:37:16.816Z,99.90
2018-09-04T22:39:46.129Z,99.90
2018-09-04T22:42:15.825Z,99.90
2018-09-04T22:44:44.658Z,99.90
2018-09-04T22:47:14.676Z,99.90
2018-09-04T22:49:48.648Z,99.90
2018-09-04T22:52:17.438Z,99.90
2018-09-04T22:54:46.221Z,99.90
2018-09-04T22:57:15.088Z,99.90
2018-09-04T22:59:43.865Z,99.90
2018-09-04T23:02:12.729Z,99.90
2018-09-04T23:04:41.559Z,99.90
2018-09-04T23:07:11.340Z,99.90
2018-09-04T23:09:40.116Z,99.90
2018-09-04T23:12:08.872Z,99.90
2018-09-04T23:14:37.637Z,99.90
2018-09-04T23:17:07.076Z,99.90
2018-09-04T23:19:36.312Z,99.90
2018-09-04T23:22:05.175Z,99.90
2018-09-04T23:24:33.972Z,99.90
2018-09-04T23:27:02.853Z,99.90
2018-09-04T23:29:31.643Z,99.90
2018-09-04T23:32:01.405Z,99.90
2018-09-04T23:34:31.454Z,99.90
2018-09-04T23:37:00.254Z,99.90
2018-09-04T23:39:29.610Z,99.90
2018-09-04T23:41:58.548Z,99.90
2018-09-04T23:44:28.184Z,99.90
2018-09-04T23:46:57.430Z,99.90
2018-09-04T23:49:27.444Z,99.90
2018-09-04T23:51:56.245Z,99.90
2018-09-04T23:54:25.151Z,99.90
2018-09-04T23:56:54.314Z,99.90
2018-09-04T23:59:23.175Z,99.90
